Soleil Weather Down

Nearby METAR Reports

 

KCNI - Canton/Cherokee, Georgia, USA
Distance from station: ENE 6mi, 10km
Updated: Tue, 23-Jul-2019 10:15pm EDT
Overcast
Overcast
 Wind from ESE
Wind: ESE 3 mph , 6 km/h
Temperature: 72°F , 22°C
Dew Point: 61°F , 16°C
Humidity: 69%
Barometer: 30.00 inHg , 1015.9 hPa
Clouds: Overcast
Visibility: 10 miles , 16 km
Cloud details: Overcast 4700 ft
2019/07/24 02:15 KCNI 240215Z AUTO 11003KT 10SM OVC047 22/16 A3000 RMK AO2
KRYY - Marietta Mccolum, Georgia, USA
Distance from station: SSW 18mi, 29km
Updated: Tue, 23-Jul-2019 9:50pm EDT
Mostly cloudy
Mostly cloudy
 Wind from varies
Wind: varies 3 mph , 6 km/h
Temperature: 73°F , 23°C
Dew Point: 61°F , 16°C
Humidity: 65%
Barometer: 29.98 inHg , 1015.2 hPa
Clouds: Mostly cloudy
Visibility: 10 miles , 16 km
Cloud details: Mostly cloudy 4900 ft
Mostly cloudy 6000 ft
2019/07/24 01:50 KRYY 240150Z VRB03KT 10SM BKN049 BKN060 23/16 A2998 RMK AO2 SLP871 T02330161 $
KVPC - Cartersville, Georgia, USA
Distance from station: WSW 22mi, 35km
Updated: Tue, 23-Jul-2019 9:53pm EDT
Clear
Clear
 Wind from calm
Wind: Calm
Temperature: 68°F , 20°C
Dew Point: 63°F , 17°C
Humidity: 83%
Barometer: 29.97 inHg , 1014.9 hPa
Clouds: Clear
Visibility: 10 miles , 16 km
2019/07/24 01:53 KVPC 240153Z AUTO 00000KT 10SM CLR 20/17 A2997 RMK AO2 SLP137 T02000172
 
KMGE - Dobbins Afb/Mari, Georgia, USA
Distance from station: S 24mi, 39km
Updated: Tue, 23-Jul-2019 9:56pm EDT
Partly cloudy
Partly cloudy
 Wind from N
Wind: N 8 mph , 13 km/h
Temperature: 73°F , 23°C
Dew Point: 61°F , 16°C
Humidity: 65%
Barometer: 29.96 inHg , 1014.6 hPa
Clouds: Partly cloudy
Visibility: 10 miles , 16 km
Cloud details: Partly cloudy 4800 ft
Partly cloudy 25000 ft
2019/07/24 01:56 KMGE 240156Z 01007KT 10SM SCT048 SCT250 23/16 A2996 RMK AO2A SLP137 T02340157 $
KPDK - Peachtree/Dekalb, Georgia, USA
Distance from station: SSE 29mi, 47km
Updated: Tue, 23-Jul-2019 9:53pm EDT
Overcast
Overcast
 Wind from N
Wind: N 9 mph , 15 km/h
Temperature: 73°F , 23°C
Dew Point: 63°F , 17°C
Humidity: 69%
Barometer: 29.96 inHg , 1014.6 hPa
Clouds: Overcast
Visibility: 10 miles , 16 km
Cloud details: Few Clouds 3200 ft
Mostly cloudy 5000 ft
Overcast 6000 ft
2019/07/24 01:53 KPDK 240153Z 01008KT 10SM FEW032 BKN050 OVC060 23/17 A2996 RMK AO2 SLP131 T02330167
KFTY - Atlanta/Fulton, Georgia, USA
Distance from station: S 34mi, 54km
Updated: Tue, 23-Jul-2019 9:53pm EDT
Mostly cloudy
Mostly cloudy
 Wind from N
Wind: N 7 mph , 11 km/h
Temperature: 75°F , 24°C
Dew Point: 61°F , 16°C
Humidity: 61%
Barometer: 29.95 inHg , 1014.2 hPa
Clouds: Mostly cloudy
Visibility: 10 miles , 16 km
Cloud details: Mostly cloudy 5000 ft
Mostly cloudy 5500 ft
2019/07/24 01:53 KFTY 240153Z 36006KT 10SM BKN050 BKN055 24/16 A2995 RMK AO2 SLP133 T02390156
 
KPUJ - Atlanta/Paulding, Georgia, USA
Distance from station: SW 34mi, 55km
Updated: Tue, 23-Jul-2019 10:15pm EDT
Clear
Clear
 Wind from N
Wind: N 8 mph , 13 km/h
Temperature: 70°F , 21°C
Dew Point: 61°F , 16°C
Humidity: 73%
Barometer: 29.99 inHg , 1015.6 hPa
Clouds: Clear
Visibility: 7 miles , 11 km
2019/07/24 02:15 KPUJ 240215Z AUTO 35007KT 7SM CLR 21/16 A2999 RMK AO2
KDNN - Dalton, Georgia, USA
Distance from station: NW 37mi, 59km
Updated: Tue, 23-Jul-2019 10:15pm EDT
Clear
Clear
 Wind from NNW
Wind: NNW 3 mph , 6 km/h
Temperature: 68°F , 20°C
Dew Point: 64°F , 18°C
Humidity: 88%
Barometer: 30.00 inHg , 1015.9 hPa
Clouds: Clear
Visibility: 10 miles , 16 km
2019/07/24 02:15 KDNN 240215Z AUTO 34003KT 10SM CLR 20/18 A3000 RMK AO2
KLZU - Lawrenceville, Georgia, USA
Distance from station: ESE 37mi, 59km
Updated: Tue, 23-Jul-2019 9:56pm EDT
Few Clouds
Few Clouds
 Wind from ENE
Wind: ENE 6 mph , 9 km/h
Temperature: 72°F , 22°C
Dew Point: 66°F , 19°C
Humidity: 83%
Barometer: 29.97 inHg , 1014.9 hPa
Clouds: Few Clouds
Visibility: 10 miles , 16 km
Cloud details: Few Clouds 4900 ft
2019/07/24 01:56 KLZU 240156Z AUTO 07005KT 10SM FEW049 22/19 A2997 RMK AO2 SLP150 T02220189 PNO $
 
KRMG - Rome, Georgia, USA
Distance from station: W 38mi, 61km
Updated: Tue, 23-Jul-2019 9:53pm EDT
Clear
Clear
 Wind from N
Wind: N 5 mph , 7 km/h
Temperature: 73°F , 23°C
Dew Point: 64°F , 18°C
Humidity: 74%
Barometer: 29.97 inHg , 1014.9 hPa
Clouds: Clear
Visibility: 10 miles , 16 km
2019/07/24 01:53 KRMG 240153Z AUTO 01004KT 10SM CLR 23/18 A2997 RMK AO2 SLP139 T02280178
KGVL - Gainesville, Georgia, USA
Distance from station: E 39mi, 62km
Updated: Wed, 17-Jul-2019 8:53am EDT
NOT Current
Clear
Clear
 Wind from W
Wind: W 9 mph , 15 km/h
Temperature: 81°F , 27°C
Heat Index: 86°F , 30°C
Dew Point: 73°F , 23°C
Humidity: 79%
Barometer: 30.16 inHg , 1021.3 hPa
Clouds: Clear
Visibility: 10 miles , 16 km
2019/07/17 12:53 KGVL 171253Z AUTO 26008KT 10SM CLR 27/23 A3016 RMK AO2 SLP195 T02670228
KATL - Atlanta, Georgia, USA
Distance from station: S 44mi, 71km
Updated: Tue, 23-Jul-2019 9:52pm EDT
Mostly cloudy
Mostly cloudy
 Wind from N
Wind: N 14 mph , 22 km/h
Temperature: 77°F , 25°C
Dew Point: 61°F , 16°C
Humidity: 57%
Barometer: 29.95 inHg , 1014.2 hPa
Clouds: Mostly cloudy
Visibility: 10 miles , 16 km
Cloud details: Few Clouds 4000 ft
Mostly cloudy 5500 ft
Mostly cloudy 25000 ft
2019/07/24 01:52 KATL 240152Z 36012KT 10SM FEW040 BKN055 BKN250 25/16 A2995 RMK AO2 SLP132 T02500156